Time;durP1;ratioP1;P1;durP2;ratioP2;P2;SDS_P1;SDS_P2;PMS_P1;PMS_P2;Temp;Humidity;BMP_temperature;BMP_pressure;BME280_temperature;BME280_humidity;BME280_pressure;Samples;Min_cycle;Max_cycle;Signal;HPM_P1;HPM_P2
2021/08/20 00:00:37;;;;;;;5.55;3.90;;;25.30;51.00;;;;;;6109004;28;80838;-62
2021/08/20 00:03:38;;;;;;;5.47;3.75;;;25.30;50.70;;;;;;6108252;28;80754;-61
2021/08/20 00:06:38;;;;;;;5.60;3.95;;;25.30;50.50;;;;;;6107763;28;81979;-61
2021/08/20 00:09:39;;;;;;;5.05;3.47;;;25.30;50.60;;;;;;6096067;28;80799;-62
2021/08/20 00:12:40;;;;;;;5.85;3.85;;;25.30;50.50;;;;;;6107999;28;80340;-63
2021/08/20 00:15:44;;;;;;;5.60;3.63;;;25.30;50.50;;;;;;6108304;28;80503;-63
2021/08/20 00:18:47;;;;;;;;;;;25.30;50.60;;;;;;6107069;28;81125;-63
2021/08/20 00:21:47;;;;;;;4.95;3.35;;;25.30;50.70;;;;;;6113975;28;81289;-63
2021/08/20 00:24:48;;;;;;;5.82;3.85;;;25.30;50.40;;;;;;6110145;28;81211;-65
2021/08/20 00:27:48;;;;;;;5.90;4.07;;;25.30;50.50;;;;;;6106416;28;80944;-64
2021/08/20 00:30:48;;;;;;;5.57;3.97;;;25.30;50.50;;;;;;6096021;28;83735;-63
2021/08/20 00:33:49;;;;;;;4.95;3.30;;;25.20;50.60;;;;;;6111872;28;80451;-63
2021/08/20 00:36:50;;;;;;;4.32;3.53;;;25.30;50.60;;;;;;6112174;28;80238;-63
2021/08/20 00:39:51;;;;;;;7.28;3.17;;;25.30;50.70;;;;;;6111409;28;80436;-62
2021/08/20 00:42:52;;;;;;;5.05;3.65;;;25.20;50.70;;;;;;6110072;28;82512;-62
2021/08/20 00:45:52;;;;;;;3.78;3.00;;;25.30;50.80;;;;;;6110323;28;81580;-62
2021/08/20 00:48:53;;;;;;;5.85;3.28;;;25.30;50.70;;;;;;6089416;28;82635;-63
2021/08/20 00:51:54;;;;;;;4.18;3.30;;;25.20;50.80;;;;;;6094449;28;81355;-63
2021/08/20 00:54:54;;;;;;;4.82;3.40;;;25.20;50.60;;;;;;6111312;28;80793;-63
2021/08/20 00:57:55;;;;;;;5.30;3.72;;;25.20;50.80;;;;;;6110375;28;80515;-63
2021/08/20 01:00:55;;;;;;;5.82;3.45;;;25.20;50.70;;;;;;6111744;28;80529;-64
2021/08/20 01:03:56;;;;;;;6.03;3.58;;;25.20;50.80;;;;;;6092326;28;81551;-63
2021/08/20 01:06:56;;;;;;;5.43;3.50;;;25.30;50.80;;;;;;6093220;28;81642;-63
2021/08/20 01:09:58;;;;;;;4.85;3.38;;;25.20;50.90;;;;;;6094557;28;83204;-63
2021/08/20 01:12:59;;;;;;;5.07;3.35;;;25.20;50.80;;;;;;6110323;28;80502;-63
2021/08/20 01:15:59;;;;;;;6.47;3.60;;;25.30;50.70;;;;;;6111964;28;80672;-62
2021/08/20 01:19:00;;;;;;;4.75;3.30;;;25.20;50.80;;;;;;6093901;28;81935;-62
2021/08/20 01:22:01;;;;;;;5.57;3.95;;;25.20;50.70;;;;;;6112292;28;80801;-62
2021/08/20 01:25:04;;;;;;;7.10;3.60;;;25.20;50.60;;;;;;6092420;28;80809;-63
2021/08/20 01:28:05;;;;;;;4.70;3.10;;;25.20;50.60;;;;;;6093802;28;82905;-62
2021/08/20 01:31:08;;;;;;;4.55;2.97;;;25.20;50.70;;;;;;6094748;28;81914;-62
2021/08/20 01:34:10;;;;;;;4.55;3.15;;;25.20;50.80;;;;;;6093388;28;82862;-62
2021/08/20 01:37:10;;;;;;;7.20;3.70;;;25.20;50.70;;;;;;6111017;28;80318;-62
2021/08/20 01:40:11;;;;;;;6.45;3.60;;;25.20;50.60;;;;;;6091419;28;82080;-63
2021/08/20 01:43:11;;;;;;;4.70;3.30;;;25.20;50.60;;;;;;6110461;28;82737;-63
2021/08/20 01:46:12;;;;;;;4.63;3.10;;;25.20;50.70;;;;;;6111832;28;87094;-64
2021/08/20 01:49:12;;;;;;;4.35;3.25;;;25.20;50.60;;;;;;6094496;28;81945;-63
2021/08/20 01:52:13;;;;;;;5.20;3.38;;;25.20;50.70;;;;;;6092470;28;83388;-63
2021/08/20 01:55:14;;;;;;;5.28;3.60;;;25.20;50.80;;;;;;6087804;28;82231;-63
2021/08/20 01:58:15;;;;;;;5.60;3.55;;;25.20;50.80;;;;;;6091236;28;81464;-63
2021/08/20 02:01:16;;;;;;;4.43;3.40;;;25.20;50.60;;;;;;6092667;28;82116;-63
2021/08/20 02:04:19;;;;;;;5.43;3.38;;;25.20;50.70;;;;;;6091224;28;82579;-63
2021/08/20 02:07:22;;;;;;;5.60;3.67;;;25.20;50.80;;;;;;6092786;28;83497;-64
2021/08/20 02:10:23;;;;;;;5.65;3.28;;;25.20;51.10;;;;;;6094289;28;83519;-64
2021/08/20 02:13:27;;;;;;;4.30;3.22;;;25.20;50.90;;;;;;6079752;28;80753;-64
2021/08/20 02:16:29;;;;;;;4.93;3.38;;;25.20;50.80;;;;;;6069583;28;82748;-64
2021/08/20 02:19:30;;;;;;;5.15;3.60;;;25.20;51.00;;;;;;6092872;28;82511;-62
2021/08/20 02:22:31;;;;;;;5.32;3.47;;;25.20;51.00;;;;;;6092758;28;82451;-63
2021/08/20 02:25:32;;;;;;;4.25;3.03;;;25.20;51.20;;;;;;6092472;28;83536;-63
2021/08/20 02:28:33;;;;;;;5.05;3.20;;;25.20;51.20;;;;;;6109584;28;80186;-63
2021/08/20 02:31:34;;;;;;;5.15;3.95;;;25.20;51.40;;;;;;6107710;28;80734;-63
2021/08/20 02:34:35;;;;;;;4.18;3.10;;;25.20;51.20;;;;;;6092065;28;80327;-63
2021/08/20 02:37:36;;;;;;;4.32;3.25;;;25.20;51.40;;;;;;6092450;28;83198;-63
2021/08/20 02:40:36;;;;;;;3.50;2.80;;;25.10;51.40;;;;;;6090749;28;83392;-63
2021/08/20 02:43:37;;;;;;;4.35;3.35;;;25.10;51.50;;;;;;6092395;28;87628;-63
2021/08/20 02:46:39;;;;;;;5.35;3.63;;;25.20;51.50;;;;;;6094230;28;83155;-63
2021/08/20 02:49:39;;;;;;;5.55;3.00;;;25.20;51.50;;;;;;6093458;28;82068;-63
2021/08/20 02:52:45;;;;;;;4.35;3.10;;;25.20;52.10;;;;;;6091187;28;82734;-63
2021/08/20 02:55:46;;;;;;;4.93;3.47;;;25.20;51.40;;;;;;6092514;28;82885;-63
2021/08/20 02:58:47;;;;;;;4.43;3.22;;;25.20;51.40;;;;;;6091092;28;85710;-63
2021/08/20 03:01:48;;;;;;;4.00;3.05;;;25.10;51.40;;;;;;6091821;28;82954;-63
2021/08/20 03:04:50;;;;;;;4.60;3.03;;;25.10;51.50;;;;;;6092042;28;83247;-63
2021/08/20 03:07:51;;;;;;;7.28;3.38;;;25.10;51.50;;;;;;6092645;28;81975;-63
2021/08/20 03:10:54;;;;;;;5.30;3.28;;;25.10;51.60;;;;;;6091640;28;83012;-63
2021/08/20 03:13:55;;;;;;;5.22;3.25;;;25.10;51.70;;;;;;6092174;28;83502;-63
2021/08/20 03:16:57;;;;;;;5.00;3.45;;;25.10;51.80;;;;;;6090087;28;88026;-63
2021/08/20 03:19:58;;;;;;;4.07;2.92;;;25.10;52.00;;;;;;6109943;28;82495;-63
2021/08/20 03:22:58;;;;;;;8.52;3.58;;;25.10;51.80;;;;;;6104489;28;83381;-63
2021/08/20 03:26:01;;;;;;;5.15;3.30;;;25.10;52.00;;;;;;6090273;28;83394;-63
2021/08/20 03:29:05;;;;;;;5.80;4.28;;;25.10;51.90;;;;;;6091716;28;81405;-63
2021/08/20 03:32:11;;;;;;;5.85;3.35;;;25.10;52.00;;;;;;6092513;28;83238;-63
2021/08/20 03:35:14;;;;;;;6.28;3.70;;;25.10;52.10;;;;;;6094615;28;82790;-63
2021/08/20 03:38:16;;;;;;;7.90;3.47;;;25.10;52.10;;;;;;6104365;28;82875;-64
2021/08/20 03:41:18;;;;;;;5.53;3.33;;;25.10;52.30;;;;;;6091124;28;81601;-63
2021/08/20 03:44:41;;;;;;;8.10;3.70;;;25.10;52.40;;;;;;6085178;28;83626;-64
2021/08/20 03:47:42;;;;;;;6.78;3.35;;;25.10;52.30;;;;;;6090508;28;88037;-63
2021/08/20 03:50:42;;;;;;;5.00;3.47;;;25.10;52.30;;;;;;6113309;28;81636;-63
2021/08/20 03:53:43;;;;;;;6.15;3.20;;;25.10;52.20;;;;;;6093032;28;81426;-64
2021/08/20 03:56:44;;;;;;;4.03;3.13;;;25.10;52.20;;;;;;6091309;28;83294;-63
2021/08/20 03:59:52;;;;;;;4.32;3.45;;;25.10;52.80;;;;;;6090105;28;81854;-63
2021/08/20 04:02:53;;;;;;;5.20;3.47;;;25.10;52.20;;;;;;6073587;28;82700;-63
2021/08/20 04:05:54;;;;;;;4.65;3.30;;;25.10;52.30;;;;;;6089451;28;83079;-64
2021/08/20 04:08:57;;;;;;;4.75;2.90;;;25.10;52.50;;;;;;6089520;28;83311;-63
2021/08/20 04:12:16;;;;;;;6.20;3.38;;;25.10;52.60;;;;;;6092211;28;80144;-61
2021/08/20 04:15:55;;;;;;;5.70;3.22;;;25.10;52.40;;;;;;6081522;28;80691;-61
2021/08/20 04:18:56;;;;;;;4.68;3.63;;;25.10;52.40;;;;;;6083987;28;83253;-60
2021/08/20 04:21:57;;;;;;;6.63;3.05;;;25.10;52.60;;;;;;6082477;28;84958;-60
2021/08/20 04:24:59;;;;;;;6.20;3.03;;;25.10;52.60;;;;;;6100958;28;83197;-63
2021/08/20 04:28:18;;;;;;;3.90;2.92;;;25.10;52.90;;;;;;6108616;28;80288;-62
2021/08/20 04:31:36;;;;;;;4.35;3.15;;;25.10;52.50;;;;;;6091346;28;83370;-61
2021/08/20 04:34:55;;;;;;;5.05;3.45;;;25.10;52.30;;;;;;6114306;28;84737;-62
2021/08/20 04:38:08;;;;;;;10.02;4.20;;;25.10;52.80;;;;;;6086860;28;83613;-62
2021/08/20 04:41:23;;;;;;;13.32;4.07;;;25.10;53.40;;;;;;6108521;28;80572;-62
2021/08/20 04:44:36;;;;;;;8.35;4.05;;;25.10;53.00;;;;;;6091976;28;82538;-61
2021/08/20 04:48:03;;;;;;;8.05;4.05;;;25.20;52.80;;;;;;6075318;28;82569;-62
2021/08/20 04:51:22;;;;;;;5.50;3.47;;;25.10;52.40;;;;;;6070893;28;81057;-61
2021/08/20 04:54:38;;;;;;;9.20;4.45;;;25.20;53.00;;;;;;6071892;28;82244;-61
2021/08/20 04:57:44;;;;;;;7.93;4.25;;;25.20;52.80;;;;;;6087337;28;80642;-61
2021/08/20 05:00:45;;;;;;;11.10;4.32;;;25.20;52.90;;;;;;6086608;28;81867;-61
2021/08/20 05:03:46;;;;;;;8.25;4.03;;;25.20;53.20;;;;;;6069352;28;83273;-63
2021/08/20 05:06:46;;;;;;;7.53;3.67;;;25.20;53.20;;;;;;6069578;28;80528;-61
2021/08/20 05:09:47;;;;;;;7.38;3.78;;;25.20;53.30;;;;;;6085646;28;80391;-61
2021/08/20 05:12:47;;;;;;;6.65;3.88;;;25.20;53.40;;;;;;6084697;28;81920;-62
2021/08/20 05:15:48;;;;;;;12.10;4.25;;;25.20;53.60;;;;;;6085934;28;80414;-62
2021/08/20 05:18:48;;;;;;;7.22;4.00;;;25.20;53.40;;;;;;6085813;28;80615;-61
2021/08/20 05:21:49;;;;;;;6.80;4.05;;;25.20;53.70;;;;;;6074260;28;80372;-62
2021/08/20 05:24:49;;;;;;;5.05;3.30;;;25.10;53.80;;;;;;6088947;28;80843;-61
2021/08/20 05:27:50;;;;;;;10.95;3.70;;;25.20;54.00;;;;;;6087099;28;80644;-61
2021/08/20 05:30:51;;;;;;;5.03;3.55;;;25.20;54.00;;;;;;6090042;28;80345;-62
2021/08/20 05:33:51;;;;;;;7.45;3.53;;;25.20;53.90;;;;;;6079824;28;81872;-60
2021/08/20 05:36:52;;;;;;;7.07;3.40;;;25.30;53.90;;;;;;6081274;28;83410;-61
2021/08/20 05:39:52;;;;;;;9.27;4.53;;;25.20;54.00;;;;;;6083125;28;81073;-61
2021/08/20 05:42:53;;;;;;;17.10;4.20;;;25.20;53.80;;;;;;6074550;28;80863;-62
2021/08/20 05:45:53;;;;;;;7.57;4.35;;;25.20;54.50;;;;;;6082436;28;80635;-61
2021/08/20 05:48:54;;;;;;;10.77;5.38;;;25.20;54.30;;;;;;6086638;28;80546;-61
2021/08/20 05:51:54;;;;;;;10.60;5.55;;;25.20;54.30;;;;;;6078708;28;82958;-62
2021/08/20 05:54:55;;;;;;;11.13;5.50;;;25.20;54.30;;;;;;6080616;28;80363;-62
2021/08/20 05:57:56;;;;;;;10.32;5.55;;;25.20;54.60;;;;;;6084682;28;81579;-61
2021/08/20 06:00:56;;;;;;;12.80;6.00;;;25.30;54.60;;;;;;6086663;28;81749;-61
2021/08/20 06:03:57;;;;;;;8.95;5.55;;;25.30;54.60;;;;;;6083338;28;83099;-62
2021/08/20 06:07:06;;;;;;;9.77;5.43;;;25.30;54.40;;;;;;6082056;28;83173;-62
2021/08/20 06:10:07;;;;;;;11.63;4.88;;;25.30;54.00;;;;;;6079206;28;80609;-61
2021/08/20 06:13:08;;;;;;;10.05;5.47;;;25.30;53.90;;;;;;6080676;28;80767;-61
2021/08/20 06:16:09;;;;;;;10.80;5.47;;;25.30;53.80;;;;;;6087087;28;80676;-61
2021/08/20 06:19:09;;;;;;;13.25;4.80;;;25.30;53.60;;;;;;6082354;28;81614;-61
2021/08/20 06:22:10;;;;;;;7.88;5.40;;;25.30;53.70;;;;;;6084303;28;80697;-61
2021/08/20 06:25:11;;;;;;;13.55;4.97;;;25.30;53.60;;;;;;6082211;28;81553;-61
2021/08/20 06:28:11;;;;;;;9.52;5.15;;;25.30;53.90;;;;;;6075873;28;80418;-61
2021/08/20 06:31:12;;;;;;;11.80;5.75;;;25.30;53.50;;;;;;6082681;28;82984;-61
2021/08/20 06:34:13;;;;;;;8.45;4.32;;;25.30;53.40;;;;;;6084146;28;80450;-61
2021/08/20 06:37:13;;;;;;;9.00;5.25;;;25.30;53.70;;;;;;6085497;28;81358;-61
2021/08/20 06:40:14;;;;;;;12.43;5.13;;;25.30;53.80;;;;;;6085576;28;80683;-61
2021/08/20 06:43:14;;;;;;;11.20;5.03;;;25.30;54.70;;;;;;6085969;28;87912;-61
2021/08/20 06:46:15;;;;;;;12.23;5.28;;;25.30;54.90;;;;;;6062400;28;81985;-61
2021/08/20 06:49:15;;;;;;;9.77;4.20;;;25.30;55.70;;;;;;6082366;28;82471;-61
2021/08/20 06:52:16;;;;;;;9.18;4.82;;;25.30;55.90;;;;;;6085308;28;80476;-61
2021/08/20 06:55:16;;;;;;;7.80;4.57;;;25.30;56.40;;;;;;6086035;28;81123;-61
2021/08/20 06:58:17;;;;;;;7.03;4.43;;;25.30;57.20;;;;;;6084429;28;80513;-61
2021/08/20 07:01:17;;;;;;;7.68;4.22;;;25.40;57.20;;;;;;6084455;28;82840;-61
2021/08/20 07:04:18;;;;;;;7.03;4.38;;;25.40;57.00;;;;;;6079246;28;80515;-61
2021/08/20 07:07:18;;;;;;;12.85;4.43;;;25.30;57.00;;;;;;6080264;28;81551;-62
2021/08/20 07:10:19;;;;;;;8.93;4.32;;;25.30;56.70;;;;;;6082004;28;80693;-61
2021/08/20 07:13:19;;;;;;;13.93;7.55;;;25.30;56.40;;;;;;6082277;28;81121;-63
2021/08/20 07:16:20;;;;;;;18.02;9.55;;;25.30;56.80;;;;;;6083563;28;81295;-63
2021/08/20 07:19:20;;;;;;;19.73;8.77;;;25.30;57.00;;;;;;6089371;28;80673;-62
2021/08/20 07:22:21;;;;;;;20.75;10.75;;;25.40;56.90;;;;;;6083405;28;81991;-60
2021/08/20 07:25:21;;;;;;;22.20;11.00;;;25.30;57.30;;;;;;6081550;28;85532;-61
2021/08/20 07:28:22;;;;;;;22.60;11.13;;;25.30;57.90;;;;;;6079165;28;83487;-61
2021/08/20 07:31:22;;;;;;;25.30;13.00;;;25.30;58.10;;;;;;6082315;28;83264;-62
2021/08/20 07:34:23;;;;;;;27.02;13.68;;;25.30;58.50;;;;;;6079596;28;83526;-62
2021/08/20 07:37:23;;;;;;;25.63;12.70;;;25.30;59.30;;;;;;6087551;28;84520;-62
2021/08/20 07:40:24;;;;;;;26.75;13.38;;;25.30;60.20;;;;;;6109776;28;83377;-60
2021/08/20 07:43:24;;;;;;;27.55;12.68;;;25.30;60.00;;;;;;6102752;28;85783;-60
2021/08/20 07:46:25;;;;;;;24.65;12.73;;;25.30;60.80;;;;;;6103145;28;83208;-61
2021/08/20 07:49:25;;;;;;;19.90;11.68;;;25.40;60.20;;;;;;6106400;28;84365;-62
2021/08/20 07:52:26;;;;;;;25.08;12.48;;;25.40;59.80;;;;;;6108279;28;84246;-61
2021/08/20 07:55:26;;;;;;;27.02;11.68;;;25.40;59.90;;;;;;6105624;28;82814;-60
2021/08/20 07:58:27;;;;;;;25.00;11.18;;;25.40;60.60;;;;;;6113568;28;85165;-61
2021/08/20 08:01:27;;;;;;;27.67;11.25;;;25.40;60.80;;;;;;6107297;28;83509;-62
2021/08/20 08:04:28;;;;;;;18.98;10.52;;;25.40;61.40;;;;;;6107209;28;83192;-62
2021/08/20 08:07:28;;;;;;;16.77;10.55;;;25.40;61.30;;;;;;6107533;28;84164;-62
2021/08/20 08:10:29;;;;;;;21.88;10.05;;;25.40;61.60;;;;;;6104677;28;84214;-61
2021/08/20 08:13:29;;;;;;;20.35;9.93;;;25.40;62.80;;;;;;6106450;28;83457;-62
2021/08/20 08:16:30;;;;;;;20.27;10.32;;;25.40;64.00;;;;;;6109325;28;82922;-61
2021/08/20 08:19:30;;;;;;;16.85;9.15;;;25.40;64.10;;;;;;6109403;28;83085;-63
2021/08/20 08:22:31;;;;;;;15.48;9.07;;;25.40;65.00;;;;;;6107113;28;82952;-62
2021/08/20 08:25:32;;;;;;;17.20;9.50;;;25.50;65.10;;;;;;6111024;28;81319;-62
2021/08/20 08:28:32;;;;;;;18.50;8.70;;;25.50;66.90;;;;;;6104395;28;81209;-62
2021/08/20 08:31:33;;;;;;;16.35;8.25;;;25.50;63.60;;;;;;6103603;28;82476;-61
2021/08/20 08:34:34;;;;;;;13.38;8.10;;;25.50;64.10;;;;;;6112330;28;81052;-62
2021/08/20 08:37:34;;;;;;;19.55;8.48;;;25.50;63.80;;;;;;6088907;28;80613;-62
2021/08/20 08:40:35;;;;;;;15.32;8.20;;;25.60;64.20;;;;;;6110221;28;84119;-62
2021/08/20 08:43:35;;;;;;;16.55;8.30;;;25.60;63.40;;;;;;6112442;28;81339;-62
2021/08/20 08:46:39;;;;;;;14.73;8.13;;;25.60;63.90;;;;;;6106755;28;80891;-62
2021/08/20 08:49:39;;;;;;;15.27;7.70;;;25.50;63.70;;;;;;6109884;28;81764;-62
2021/08/20 08:52:40;;;;;;;16.95;7.95;;;25.50;63.10;;;;;;6112986;28;80737;-61
2021/08/20 08:55:40;;;;;;;15.85;7.93;;;25.50;63.30;;;;;;6111922;28;80787;-61
2021/08/20 08:58:41;;;;;;;11.95;7.07;;;25.50;62.60;;;;;;6114251;28;82110;-61
2021/08/20 09:01:42;;;;;;;14.50;7.20;;;25.50;62.70;;;;;;6112012;28;81650;-63
2021/08/20 09:04:42;;;;;;;22.63;8.18;;;25.50;62.00;;;;;;6113912;28;80502;-62
2021/08/20 09:07:43;;;;;;;11.57;6.63;;;25.60;61.20;;;;;;6115661;28;81581;-62
2021/08/20 09:10:43;;;;;;;11.73;7.25;;;25.60;60.50;;;;;;6095029;28;80511;-62
2021/08/20 09:13:44;;;;;;;11.30;7.03;;;25.60;60.00;;;;;;6111703;28;81704;-61
2021/08/20 09:16:44;;;;;;;11.35;6.82;;;25.60;59.60;;;;;;6112325;28;82304;-62
2021/08/20 09:19:45;;;;;;;10.27;6.07;;;25.60;59.60;;;;;;6112661;28;80892;-62
2021/08/20 09:22:45;;;;;;;8.65;5.55;;;25.70;59.40;;;;;;6121389;28;81622;-62
2021/08/20 09:25:46;;;;;;;9.55;5.82;;;25.70;59.10;;;;;;6117653;28;80432;-62
2021/08/20 09:28:46;;;;;;;24.30;6.20;;;25.70;59.00;;;;;;6120353;28;80281;-62
2021/08/20 09:31:47;;;;;;;10.40;5.65;;;25.70;59.00;;;;;;6111189;28;80667;-63
2021/08/20 09:34:47;;;;;;;9.00;5.30;;;25.70;58.70;;;;;;6114881;28;81109;-63
2021/08/20 09:37:48;;;;;;;13.73;5.55;;;25.70;58.40;;;;;;6113862;28;80435;-63
2021/08/20 09:40:50;;;;;;;9.23;5.30;;;25.70;57.30;;;;;;6114722;28;80498;-62
2021/08/20 09:43:52;;;;;;;9.82;4.85;;;25.70;57.40;;;;;;6118097;28;86314;-62
2021/08/20 09:46:55;;;;;;;8.45;4.40;;;25.70;57.00;;;;;;6113664;28;81701;-63
2021/08/20 09:49:55;;;;;;;8.40;4.63;;;25.70;56.20;;;;;;6094802;28;80517;-63
2021/08/20 09:52:56;;;;;;;12.38;5.03;;;25.70;55.90;;;;;;6117102;28;80280;-63
2021/08/20 09:55:56;;;;;;;7.00;3.85;;;25.80;56.10;;;;;;6110516;28;81365;-63
2021/08/20 09:58:57;;;;;;;9.90;4.88;;;25.80;56.00;;;;;;6114328;28;80457;-64
2021/08/20 10:01:57;;;;;;;7.55;4.50;;;25.80;56.30;;;;;;6116001;28;80288;-63
2021/08/20 10:04:58;;;;;;;8.75;4.25;;;25.80;56.30;;;;;;6122096;28;83071;-63
2021/08/20 10:07:58;;;;;;;8.40;4.53;;;25.80;55.90;;;;;;6117576;28;81884;-64
2021/08/20 10:10:59;;;;;;;8.77;4.00;;;25.80;55.80;;;;;;6109868;28;80853;-62
2021/08/20 10:13:59;;;;;;;5.65;4.22;;;25.80;56.30;;;;;;6113512;28;80565;-66
2021/08/20 10:17:00;;;;;;;5.40;4.13;;;25.90;56.10;;;;;;6111157;28;81298;-64
2021/08/20 10:20:00;;;;;;;6.88;3.72;;;25.90;56.20;;;;;;6112876;28;80424;-64
2021/08/20 10:23:01;;;;;;;4.53;3.40;;;25.80;56.00;;;;;;6102455;28;81625;-64
2021/08/20 10:26:02;;;;;;;12.85;4.05;;;25.80;56.20;;;;;;6108330;28;80301;-63
2021/08/20 10:29:03;;;;;;;9.45;3.92;;;25.90;56.10;;;;;;6114522;28;80780;-65
2021/08/20 10:32:03;;;;;;;5.63;4.18;;;25.80;56.00;;;;;;6110753;28;81593;-65
2021/08/20 10:35:04;;;;;;;7.32;4.47;;;25.80;56.00;;;;;;6111239;28;80575;-65
2021/08/20 10:38:04;;;;;;;6.68;4.68;;;25.80;54.10;;;;;;6093873;28;80599;-64
2021/08/20 10:41:05;;;;;;;9.13;5.25;;;25.90;54.60;;;;;;6109806;28;81627;-63
2021/08/20 10:44:05;;;;;;;13.98;8.13;;;25.90;54.50;;;;;;6110272;28;80572;-64
2021/08/20 10:47:06;;;;;;;10.48;6.55;;;25.80;53.20;;;;;;6094561;28;81938;-66
2021/08/20 10:50:06;;;;;;;12.77;4.75;;;25.80;51.80;;;;;;6110110;28;80625;-64
2021/08/20 10:53:07;;;;;;;7.63;4.00;;;25.90;51.40;;;;;;6095199;28;80726;-65
2021/08/20 10:56:07;;;;;;;8.50;5.20;;;25.90;50.40;;;;;;6111490;28;80516;-65
2021/08/20 10:59:08;;;;;;;9.15;4.63;;;25.80;50.00;;;;;;6104069;28;82169;-64
2021/08/20 11:02:08;;;;;;;7.57;3.80;;;25.90;51.20;;;;;;6111658;28;81394;-63
2021/08/20 11:05:09;;;;;;;6.38;3.25;;;25.90;50.00;;;;;;6109057;28;80294;-63
2021/08/20 11:08:09;;;;;;;5.13;3.70;;;26.00;49.10;;;;;;6111393;28;81952;-64
2021/08/20 11:11:10;;;;;;;7.18;4.07;;;25.90;49.10;;;;;;6093471;28;80609;-64
2021/08/20 11:14:10;;;;;;;4.25;3.03;;;26.00;50.20;;;;;;6086555;28;83187;-63
2021/08/20 11:17:11;;;;;;;4.63;3.30;;;26.00;48.00;;;;;;6105287;28;80478;-63
2021/08/20 11:20:11;;;;;;;6.50;2.75;;;26.00;48.30;;;;;;6112948;28;81589;-62
2021/08/20 11:23:12;;;;;;;8.80;3.22;;;26.00;47.80;;;;;;6095186;28;80402;-63
2021/08/20 11:26:13;;;;;;;4.35;2.88;;;26.00;47.00;;;;;;6112793;28;80917;-63
2021/08/20 11:29:13;;;;;;;4.95;2.85;;;26.00;47.20;;;;;;6113393;28;80961;-62
2021/08/20 11:32:14;;;;;;;6.00;3.30;;;26.10;47.50;;;;;;6113957;28;81246;-63
2021/08/20 11:35:14;;;;;;;5.47;3.13;;;26.10;49.10;;;;;;6116225;28;81077;-62
2021/08/20 11:38:15;;;;;;;6.35;2.95;;;26.10;48.80;;;;;;6113753;28;81051;-63
2021/08/20 11:41:20;;;;;;;3.83;2.92;;;26.10;48.90;;;;;;6112654;28;80421;-63
2021/08/20 11:44:21;;;;;;;5.47;3.28;;;26.10;48.50;;;;;;6116624;28;81528;-63
2021/08/20 11:47:21;;;;;;;4.45;3.30;;;26.20;49.40;;;;;;6114273;28;80966;-63
2021/08/20 11:50:22;;;;;;;4.85;3.22;;;26.10;49.30;;;;;;6113677;28;81394;-63
2021/08/20 11:53:22;;;;;;;4.53;3.33;;;26.10;48.90;;;;;;6102219;28;81691;-65
2021/08/20 11:56:23;;;;;;;4.60;3.15;;;26.10;48.80;;;;;;6111182;28;81170;-63
2021/08/20 11:59:23;;;;;;;3.97;3.10;;;26.10;49.80;;;;;;6112072;28;80884;-63
2021/08/20 12:02:24;;;;;;;6.35;3.42;;;26.10;49.10;;;;;;6115868;28;81043;-63
2021/08/20 12:05:24;;;;;;;4.72;3.72;;;26.00;49.40;;;;;;6112866;28;82476;-63
2021/08/20 12:08:25;;;;;;;3.53;3.05;;;26.00;49.40;;;;;;6113446;28;80047;-64
2021/08/20 12:11:25;;;;;;;5.72;3.30;;;26.00;49.40;;;;;;6092958;28;81773;-63
2021/08/20 12:14:27;;;;;;;4.72;3.13;;;26.00;49.20;;;;;;6111719;28;81538;-63
2021/08/20 12:17:32;;;;;;;4.90;3.38;;;26.00;49.40;;;;;;6104562;28;81756;-62
2021/08/20 12:20:33;;;;;;;4.27;3.77;;;26.00;50.20;;;;;;6105504;28;81326;-62
2021/08/20 12:23:33;;;;;;;6.47;3.50;;;26.00;49.60;;;;;;6107593;28;81126;-62
2021/08/20 12:26:34;;;;;;;5.03;3.58;;;26.00;49.50;;;;;;6112052;28;81475;-62
2021/08/20 12:29:34;;;;;;;5.07;3.30;;;26.00;49.40;;;;;;6097591;28;83428;-63
2021/08/20 12:32:35;;;;;;;5.53;4.00;;;25.90;49.10;;;;;;6112890;28;80350;-62
2021/08/20 12:35:35;;;;;;;6.10;4.00;;;25.90;49.00;;;;;;6116311;28;80702;-62
2021/08/20 12:38:36;;;;;;;6.25;4.20;;;25.90;49.10;;;;;;6102493;28;80711;-63
2021/08/20 12:41:38;;;;;;;3.95;2.92;;;25.90;49.30;;;;;;6094940;28;81404;-63
2021/08/20 12:44:38;;;;;;;5.43;3.20;;;25.80;49.60;;;;;;6099457;28;80643;-63
2021/08/20 12:47:41;;;;;;;3.70;3.25;;;25.90;49.70;;;;;;6094451;28;81287;-63
2021/08/20 12:50:41;;;;;;;5.45;3.75;;;25.90;49.90;;;;;;6107868;28;80478;-63
2021/08/20 12:53:42;;;;;;;5.80;3.38;;;25.90;49.70;;;;;;6110823;28;81012;-63
2021/08/20 12:56:42;;;;;;;6.57;3.90;;;25.90;49.80;;;;;;6092488;28;85037;-63
2021/08/20 12:59:43;;;;;;;4.95;3.72;;;25.90;50.10;;;;;;6116297;28;81730;-63
2021/08/20 13:02:43;;;;;;;5.97;2.70;;;25.90;50.00;;;;;;6113968;28;81379;-63
2021/08/20 13:05:44;;;;;;;4.13;3.05;;;25.90;49.90;;;;;;6115737;28;81080;-63
2021/08/20 13:08:44;;;;;;;6.93;3.38;;;25.90;49.90;;;;;;6111785;28;80609;-63
2021/08/20 13:11:45;;;;;;;9.82;3.50;;;25.90;49.80;;;;;;6107262;28;81022;-63
2021/08/20 13:14:45;;;;;;;4.63;3.30;;;25.90;49.70;;;;;;6115469;28;80689;-63
2021/08/20 13:17:46;;;;;;;4.60;3.08;;;25.90;49.60;;;;;;6112538;28;81301;-62
2021/08/20 13:20:46;;;;;;;3.50;2.97;;;25.90;50.10;;;;;;6114657;28;80627;-63
2021/08/20 13:23:47;;;;;;;5.13;2.88;;;25.90;50.20;;;;;;6110294;28;81663;-64
2021/08/20 13:26:47;;;;;;;4.65;2.67;;;25.90;49.20;;;;;;6101497;28;80468;-64
2021/08/20 13:29:48;;;;;;;4.38;3.28;;;25.90;49.40;;;;;;6111389;28;80578;-64
2021/08/20 13:32:48;;;;;;;8.82;3.10;;;25.80;48.40;;;;;;6099726;28;81955;-64
2021/08/20 13:35:49;;;;;;;4.47;3.30;;;25.80;48.60;;;;;;6109969;28;81104;-64
2021/08/20 13:38:49;;;;;;;7.95;4.43;;;25.80;48.90;;;;;;6114622;28;80596;-64
2021/08/20 13:41:50;;;;;;;8.00;3.38;;;25.80;49.00;;;;;;6113029;28;81680;-64
2021/08/20 13:44:50;;;;;;;6.22;3.20;;;25.80;49.40;;;;;;6110673;28;81728;-64
2021/08/20 13:47:51;;;;;;;5.78;3.40;;;25.80;49.70;;;;;;6114040;28;80860;-63
2021/08/20 13:50:51;;;;;;;4.97;3.38;;;25.90;50.00;;;;;;6112828;28;80332;-64
2021/08/20 13:53:52;;;;;;;6.47;3.10;;;25.90;50.30;;;;;;6110487;28;80406;-64
2021/08/20 13:56:52;;;;;;;8.40;3.30;;;25.90;50.30;;;;;;6112703;28;80772;-65
2021/08/20 13:59:53;;;;;;;8.43;4.05;;;25.90;50.40;;;;;;6115315;28;80908;-65
2021/08/20 14:02:53;;;;;;;4.10;3.28;;;25.90;50.10;;;;;;6115001;28;80522;-64
2021/08/20 14:05:54;;;;;;;9.45;3.53;;;25.90;50.60;;;;;;6094992;28;80643;-64
2021/08/20 14:08:54;;;;;;;6.43;3.22;;;25.90;50.60;;;;;;6113272;28;81757;-67
2021/08/20 14:11:55;;;;;;;4.97;3.30;;;25.90;50.30;;;;;;6110808;28;81468;-66
2021/08/20 14:14:55;;;;;;;3.60;2.72;;;25.90;50.40;;;;;;6112324;28;81349;-64
2021/08/20 14:17:56;;;;;;;5.13;3.00;;;25.90;50.40;;;;;;6107960;28;80438;-64
2021/08/20 14:20:56;;;;;;;5.60;3.40;;;25.90;50.50;;;;;;6109965;28;80366;-63
2021/08/20 14:23:57;;;;;;;3.78;3.08;;;25.90;50.40;;;;;;6111215;28;80853;-64
2021/08/20 14:26:57;;;;;;;4.80;3.10;;;25.90;50.40;;;;;;6090481;28;80644;-65
2021/08/20 14:29:58;;;;;;;4.50;3.15;;;25.90;50.20;;;;;;6101384;28;80526;-64
2021/08/20 14:32:59;;;;;;;7.38;3.28;;;25.80;50.10;;;;;;6093143;28;80556;-65
2021/08/20 14:36:00;;;;;;;4.28;3.35;;;25.80;50.20;;;;;;6111423;28;87754;-64
2021/08/20 14:39:00;;;;;;;4.70;3.50;;;25.80;50.50;;;;;;6111232;28;81547;-65
2021/08/20 14:42:01;;;;;;;7.50;3.75;;;25.80;51.20;;;;;;6111963;28;80401;-65
2021/08/20 14:45:02;;;;;;;6.38;3.13;;;25.80;51.30;;;;;;6109199;28;81402;-64
2021/08/20 14:48:04;;;;;;;7.13;3.70;;;25.80;51.10;;;;;;6109098;28;80744;-63
2021/08/20 14:51:05;;;;;;;3.85;3.00;;;25.80;51.40;;;;;;6100650;28;81405;-63
2021/08/20 14:54:05;;;;;;;4.90;2.92;;;25.80;51.30;;;;;;6110417;28;81741;-63
2021/08/20 14:57:06;;;;;;;5.22;3.42;;;25.80;51.30;;;;;;6110549;28;81469;-64
2021/08/20 15:00:06;;;;;;;6.35;3.58;;;25.90;51.40;;;;;;6110724;28;83019;-63
2021/08/20 15:03:08;;;;;;;7.38;3.58;;;25.90;51.40;;;;;;6111760;28;81004;-63
2021/08/20 15:06:08;;;;;;;4.55;3.30;;;25.90;51.40;;;;;;6109018;28;81183;-65
2021/08/20 15:09:09;;;;;;;4.47;3.38;;;25.90;51.50;;;;;;6108039;28;80462;-65
2021/08/20 15:12:09;;;;;;;9.52;4.22;;;25.90;51.50;;;;;;6106159;28;81595;-64
2021/08/20 15:15:10;;;;;;;6.60;3.47;;;25.90;51.40;;;;;;6110318;28;81943;-64
2021/08/20 15:18:10;;;;;;;6.28;3.53;;;25.90;51.60;;;;;;6112395;28;80684;-65
2021/08/20 15:21:11;;;;;;;5.03;3.70;;;25.90;51.30;;;;;;6113593;28;81569;-64
2021/08/20 15:24:11;;;;;;;6.13;3.80;;;25.90;51.20;;;;;;6111827;28;81057;-65
2021/08/20 15:27:12;;;;;;;6.50;4.40;;;25.80;51.20;;;;;;6112127;28;81509;-65
2021/08/20 15:30:12;;;;;;;5.93;3.70;;;25.80;51.30;;;;;;6111008;28;82220;-63
2021/08/20 15:33:13;;;;;;;6.22;4.45;;;25.70;50.90;;;;;;6113320;28;80402;-64
2021/08/20 15:36:13;;;;;;;6.70;3.60;;;25.70;51.00;;;;;;6104883;28;81099;-63
2021/08/20 15:39:14;;;;;;;5.72;4.10;;;25.70;51.10;;;;;;6111656;28;80368;-63